Time;durP1;ratioP1;P1;durP2;ratioP2;P2;SDS_P1;SDS_P2;PMS_P1;PMS_P2;Temp;Humidity;BMP_temperature;BMP_pressure;BME280_temperature;BME280_humidity;BME280_pressure;Samples;Min_cycle;Max_cycle;Signal;HPM_P1;HPM_P2
2022/01/10 00:00:54;;;;;;;7.85;2.03;;;;;;;4.83;100.00;101049.22;5069962;28;20052;-35
2022/01/10 00:03:24;;;;;;;7.20;2.10;;;;;;;4.79;100.00;101050.88;5070990;28;20127;-41
2022/01/10 00:05:51;;;;;;;9.50;1.80;;;;;;;4.78;100.00;101049.19;5067077;28;20402;-36
2022/01/10 00:08:19;;;;;;;5.55;1.50;;;;;;;4.75;100.00;101053.28;5069707;28;20044;-42
2022/01/10 00:10:47;;;;;;;7.90;1.70;;;;;;;4.73;100.00;101049.13;5070074;28;20063;-33
2022/01/10 00:13:16;;;;;;;8.40;2.20;;;;;;;4.70;100.00;101055.16;5070333;28;20036;-34
2022/01/10 00:15:44;;;;;;;9.45;1.83;;;;;;;4.67;100.00;101055.66;5070637;28;20537;-37
2022/01/10 00:18:12;;;;;;;10.55;2.30;;;;;;;4.63;100.00;101054.47;5070871;28;20421;-36
2022/01/10 00:20:40;;;;;;;12.15;2.42;;;;;;;4.56;100.00;101056.63;5069424;28;20410;-36
2022/01/10 00:23:09;;;;;;;10.93;1.80;;;;;;;4.50;100.00;101066.75;5070592;28;20045;-36
2022/01/10 00:25:37;;;;;;;9.95;2.35;;;;;;;4.44;100.00;101068.59;5070213;28;20500;-35
2022/01/10 00:28:04;;;;;;;8.40;1.95;;;;;;;4.41;100.00;101076.53;5069809;28;20083;-41
2022/01/10 00:30:34;;;;;;;10.65;2.22;;;;;;;4.35;100.00;101085.88;5069070;28;20497;-34
2022/01/10 00:33:01;;;;;;;14.43;2.58;;;;;;;4.29;100.00;101090.47;5069182;28;20044;-33
2022/01/10 00:35:29;;;;;;;11.65;2.33;;;;;;;4.24;100.00;101095.91;5071572;28;20048;-36
2022/01/10 00:37:57;;;;;;;13.68;2.42;;;;;;;4.22;100.00;101098.06;5073944;28;20036;-39
2022/01/10 00:40:24;;;;;;;14.02;2.35;;;;;;;4.19;100.00;101104.13;5072109;28;20166;-38
2022/01/10 00:42:56;;;;;;;8.27;1.83;;;;;;;4.18;100.00;101102.44;5072396;28;20349;-37
2022/01/10 00:45:28;;;;;;;6.03;1.67;;;;;;;4.14;100.00;101098.50;5073983;28;20045;-35
2022/01/10 00:47:59;;;;;;;12.80;1.92;;;;;;;4.12;100.00;101108.97;5072416;28;20385;-34
2022/01/10 00:50:29;;;;;;;6.50;1.33;;;;;;;4.12;100.00;101120.00;5071335;28;20062;-39
2022/01/10 00:52:57;;;;;;;5.82;1.77;;;;;;;4.11;100.00;101123.88;5073869;28;20048;-35
2022/01/10 00:55:25;;;;;;;7.30;1.55;;;;;;;4.07;100.00;101120.75;5073149;28;20053;-39
2022/01/10 00:57:53;;;;;;;9.77;2.17;;;;;;;4.03;100.00;101129.78;5073648;28;20051;-35
2022/01/10 01:00:21;;;;;;;5.35;1.40;;;;;;;3.98;100.00;101130.56;5054686;28;20055;-37
2022/01/10 01:02:49;;;;;;;5.22;1.50;;;;;;;3.97;100.00;101134.41;5072672;28;20504;-39
2022/01/10 01:05:21;;;;;;;6.18;1.63;;;;;;;3.96;100.00;101142.94;5073545;28;20048;-37
2022/01/10 01:07:50;;;;;;;9.27;1.30;;;;;;;3.94;100.00;101134.91;5073104;28;20043;-35
2022/01/10 01:10:48;;;;;;;10.13;2.40;;;;;;;3.91;100.00;101131.78;5073210;28;20049;-34
2022/01/10 01:13:25;;;;;;;6.90;2.47;;;;;;;3.84;100.00;101147.66;5073181;28;20490;-39
2022/01/10 01:16:10;;;;;;;7.80;2.40;;;;;;;3.78;100.00;101144.81;5055768;28;20056;-35
2022/01/10 01:19:05;;;;;;;13.35;2.50;;;;;;;3.77;100.00;101147.81;5072691;28;20488;-33
2022/01/10 01:24:20;;;;;;;9.60;2.30;;;;;;;3.72;100.00;101169.81;5072847;28;20048;-32
2022/01/10 01:26:52;;;;;;;9.23;2.25;;;;;;;3.70;100.00;101159.00;5073219;28;20037;-34
2022/01/10 01:29:21;;;;;;;8.25;2.30;;;;;;;3.63;100.00;101165.75;5072846;28;20045;-39
2022/01/10 01:31:49;;;;;;;10.95;2.35;;;;;;;3.60;100.00;101180.03;5072340;28;20037;-36
2022/01/10 01:34:18;;;;;;;5.65;1.77;;;;;;;3.57;100.00;101181.38;5071461;28;20048;-36
2022/01/10 01:36:51;;;;;;;4.72;1.50;;;;;;;3.55;100.00;101179.94;5071815;28;20040;-38
2022/01/10 01:39:21;;;;;;;7.25;2.03;;;;;;;3.52;100.00;101192.31;5070424;28;20048;-40
2022/01/10 01:42:01;;;;;;;15.07;2.67;;;;;;;3.48;100.00;101191.13;5071645;28;20410;-43
2022/01/10 01:44:29;;;;;;;7.72;2.15;;;;;;;3.43;100.00;101202.88;5071117;28;20413;-35
2022/01/10 01:46:57;;;;;;;4.80;1.70;;;;;;;3.40;100.00;101208.88;5071736;28;20040;-33
2022/01/10 01:49:25;;;;;;;4.90;1.67;;;;;;;3.35;100.00;101205.19;5072295;28;20048;-38
2022/01/10 01:51:54;;;;;;;4.80;1.60;;;;;;;3.29;100.00;101203.41;5072105;28;20109;-37
2022/01/10 01:54:22;;;;;;;5.85;1.77;;;;;;;3.25;100.00;101236.13;5069363;28;20143;-38
2022/01/10 01:56:52;;;;;;;7.53;2.20;;;;;;;3.19;100.00;101225.25;5071208;28;20425;-41
2022/01/10 01:59:20;;;;;;;10.95;2.58;;;;;;;3.13;100.00;101234.47;5070047;28;20044;-37
2022/01/10 02:01:48;;;;;;;7.95;2.15;;;;;;;3.07;100.00;101244.53;5071525;28;20440;-35
2022/01/10 02:04:17;;;;;;;10.95;2.67;;;;;;;3.01;100.00;101246.31;5071009;28;20040;-38
2022/01/10 02:06:48;;;;;;;7.97;2.25;;;;;;;2.97;100.00;101244.31;5070664;28;20048;-41
2022/01/10 02:09:18;;;;;;;5.10;1.88;;;;;;;2.91;100.00;101259.88;5070607;28;20418;-34
2022/01/10 02:11:50;;;;;;;6.20;1.85;;;;;;;2.87;100.00;101266.09;5071058;28;20079;-37
2022/01/10 02:14:19;;;;;;;4.75;1.52;;;;;;;2.83;100.00;101265.75;5070092;28;20048;-38
2022/01/10 02:16:54;;;;;;;9.45;3.05;;;;;;;2.78;100.00;101276.66;5071383;28;20394;-37
2022/01/10 02:19:32;;;;;;;5.13;1.90;;;;;;;2.69;100.00;101281.66;5070593;28;20048;-34
2022/01/10 02:22:01;;;;;;;10.20;2.60;;;;;;;2.65;100.00;101271.34;5071473;28;20410;-32
2022/01/10 02:24:38;;;;;;;10.32;3.25;;;;;;;2.62;100.00;101282.84;5070675;28;20049;-38
2022/01/10 02:27:06;;;;;;;7.60;2.33;;;;;;;2.59;100.00;101286.09;5070286;28;20075;-37
2022/01/10 02:29:36;;;;;;;7.63;2.63;;;;;;;2.57;100.00;101288.25;5071684;28;20462;-37
2022/01/10 02:32:04;;;;;;;4.82;1.60;;;;;;;2.56;100.00;101292.91;5061134;28;20045;-40
2022/01/10 02:34:32;;;;;;;10.68;3.35;;;;;;;2.53;100.00;101298.03;5069446;28;20102;-37
2022/01/10 02:37:02;;;;;;;7.20;2.50;;;;;;;2.48;100.00;101295.97;5072001;28;20062;-36
2022/01/10 02:39:36;;;;;;;5.97;2.25;;;;;;;2.43;100.00;101304.94;5070465;28;20082;-34
2022/01/10 02:42:04;;;;;;;7.70;2.40;;;;;;;2.42;100.00;101306.03;5069922;28;20082;-34
2022/01/10 02:44:32;;;;;;;7.35;2.75;;;;;;;2.40;100.00;101308.16;5071491;28;20071;-36
2022/01/10 02:46:59;;;;;;;8.88;3.60;;;;;;;2.37;100.00;101313.31;5070517;28;20048;-40
2022/01/10 02:49:33;;;;;;;10.13;2.85;;;;;;;2.33;100.00;101320.38;5069109;28;20066;-34
2022/01/10 02:52:03;;;;;;;6.47;2.53;;;;;;;2.30;100.00;101313.41;5070361;28;20049;-30
2022/01/10 02:54:32;;;;;;;4.28;1.95;;;;;;;2.27;100.00;101322.13;5070220;28;20095;-37
2022/01/10 02:57:07;;;;;;;11.02;3.58;;;;;;;2.23;100.00;101312.66;5068266;28;20048;-37
2022/01/10 02:59:37;;;;;;;12.10;4.40;;;;;;;2.19;100.00;101319.72;5069988;28;20127;-35
2022/01/10 03:02:06;;;;;;;13.60;4.10;;;;;;;2.16;100.00;101325.69;5069499;28;20492;-37
2022/01/10 03:04:35;;;;;;;12.65;3.90;;;;;;;2.15;100.00;101328.66;5070090;28;20139;-35
2022/01/10 03:07:05;;;;;;;13.88;4.75;;;;;;;2.13;100.00;101339.91;5071471;28;20056;-34
2022/01/10 03:09:34;;;;;;;9.27;3.70;;;;;;;2.09;100.00;101346.94;5070702;28;20045;-39
2022/01/10 03:12:02;;;;;;;7.47;3.20;;;;;;;2.07;100.00;101366.44;5069847;28;20076;-33
2022/01/10 03:14:29;;;;;;;7.47;3.20;;;;;;;2.06;100.00;101366.66;5070451;28;20053;-36
2022/01/10 03:16:57;;;;;;;8.70;3.22;;;;;;;2.04;100.00;101374.31;5070288;28;20040;-35
2022/01/10 03:19:25;;;;;;;10.27;4.38;;;;;;;2.01;100.00;101372.84;5071536;28;20048;-40
2022/01/10 03:21:53;;;;;;;12.88;3.97;;;;;;;2.00;100.00;101370.34;5069265;28;20048;-37
2022/01/10 03:24:22;;;;;;;9.25;3.45;;;;;;;1.97;100.00;101379.09;5069245;28;20044;-40
2022/01/10 03:26:50;;;;;;;10.80;4.28;;;;;;;1.96;100.00;101371.91;5069227;28;20056;-35
2022/01/10 03:29:18;;;;;;;10.32;3.58;;;;;;;1.96;100.00;101385.66;5069973;28;20059;-34
2022/01/10 03:31:47;;;;;;;10.63;3.70;;;;;;;1.94;100.00;101396.88;5068917;28;20125;-38
2022/01/10 03:34:15;;;;;;;6.00;2.80;;;;;;;1.95;100.00;101393.06;5071547;28;20044;-41
2022/01/10 03:36:44;;;;;;;6.85;3.30;;;;;;;1.96;100.00;101407.66;5069539;28;20040;-34
2022/01/10 03:39:13;;;;;;;9.93;3.40;;;;;;;1.94;100.00;101399.63;5068753;28;20053;-37
2022/01/10 03:41:42;;;;;;;10.32;3.72;;;;;;;1.94;100.00;101399.63;5069535;28;20090;-40
2022/01/10 03:44:12;;;;;;;10.70;4.18;;;;;;;1.92;100.00;101407.28;5069168;28;20131;-34
2022/01/10 03:46:40;;;;;;;15.98;5.07;;;;;;;1.90;100.00;101414.06;5069375;28;20049;-30
2022/01/10 03:49:09;;;;;;;11.55;4.68;;;;;;;1.88;100.00;101416.22;5069711;28;20048;-36
2022/01/10 03:51:37;;;;;;;10.75;4.18;;;;;;;1.86;100.00;101423.84;5068601;28;20049;-36
2022/01/10 03:54:05;;;;;;;10.60;4.40;;;;;;;1.85;100.00;101419.41;5070972;28;20110;-35
2022/01/10 03:56:33;;;;;;;10.60;3.72;;;;;;;1.84;100.00;101424.09;5070842;28;20082;-33
2022/01/10 03:59:06;;;;;;;16.42;5.25;;;;;;;1.83;100.00;101419.63;5066929;28;20065;-34
2022/01/10 04:01:37;;;;;;;9.23;3.35;;;;;;;1.83;100.00;101432.56;5069331;28;20041;-36
2022/01/10 04:04:06;;;;;;;6.68;3.22;;;;;;;1.81;100.00;101442.94;5069472;28;20044;-30
2022/01/10 04:06:35;;;;;;;5.38;2.55;;;;;;;1.79;100.00;101440.44;5068587;28;20083;-30
2022/01/10 04:09:04;;;;;;;5.82;2.33;;;;;;;1.76;100.00;101462.06;5069397;28;20071;-37
2022/01/10 04:11:32;;;;;;;5.28;2.53;;;;;;;1.75;100.00;101457.63;5073296;28;20106;-38
2022/01/10 04:14:00;;;;;;;9.15;3.05;;;;;;;1.72;100.00;101451.50;5071207;28;20455;-34
2022/01/10 04:16:29;;;;;;;6.65;3.08;;;;;;;1.70;100.00;101472.06;5073573;28;20088;-35
2022/01/10 04:18:58;;;;;;;8.20;3.42;;;;;;;1.67;100.00;101462.34;5072680;28;20051;-36
2022/01/10 04:21:25;;;;;;;5.82;2.55;;;;;;;1.64;100.00;101472.94;5072481;28;20045;-33
2022/01/10 04:23:53;;;;;;;5.90;2.72;;;;;;;1.61;100.00;101474.25;5072809;28;20135;-41
2022/01/10 04:26:21;;;;;;;8.27;3.65;;;;;;;1.61;100.00;101471.50;5072315;28;20531;-38
2022/01/10 04:28:50;;;;;;;13.68;5.38;;;;;;;1.59;100.00;101470.06;5072139;28;20464;-32
2022/01/10 04:31:18;;;;;;;10.13;4.55;;;;;;;1.57;100.00;101489.53;5072486;28;20049;-35
2022/01/10 04:33:47;;;;;;;15.65;5.50;;;;;;;1.55;100.00;101488.91;5073370;28;20032;-35
2022/01/10 04:36:15;;;;;;;16.33;5.82;;;;;;;1.55;100.00;101488.91;5073037;28;20036;-32
2022/01/10 04:38:43;;;;;;;8.82;5.15;;;;;;;1.58;100.00;101495.88;5072660;28;20091;-35
2022/01/10 04:41:14;;;;;;;8.02;3.90;;;;;;;1.58;100.00;101513.22;5072038;28;20109;-35
2022/01/10 04:43:42;;;;;;;7.00;3.70;;;;;;;1.59;100.00;101517.66;5072354;28;20052;-33
2022/01/10 04:46:12;;;;;;;5.38;2.80;;;;;;;1.60;100.00;101510.25;5072856;28;20082;-40
2022/01/10 04:48:40;;;;;;;7.35;2.67;;;;;;;1.59;100.00;101534.16;5071914;28;20528;-34
2022/01/10 04:51:13;;;;;;;5.90;3.28;;;;;;;1.56;100.00;101534.59;5071415;28;20093;-35
2022/01/10 04:53:43;;;;;;;5.82;2.75;;;;;;;1.55;100.00;101529.31;5073927;28;20067;-36
2022/01/10 04:56:12;;;;;;;6.30;3.40;;;;;;;1.53;100.00;101540.53;5072834;28;20074;-37
2022/01/10 04:58:42;;;;;;;6.03;2.60;;;;;;;1.53;100.00;101547.94;5072828;28;20428;-30
2022/01/10 05:01:11;;;;;;;6.80;2.88;;;;;;;1.52;100.00;101555.38;5070716;28;20135;-41
2022/01/10 05:03:39;;;;;;;6.03;2.70;;;;;;;1.49;100.00;101555.81;5071761;28;20040;-32
2022/01/10 05:06:08;;;;;;;11.27;3.85;;;;;;;1.49;100.00;101555.81;5072223;28;20457;-37
2022/01/10 05:08:36;;;;;;;9.60;3.95;;;;;;;1.49;100.00;101555.81;5072687;28;20044;-37
2022/01/10 05:11:10;;;;;;;11.27;4.78;;;;;;;1.47;100.00;101566.19;5072070;28;20052;-33
2022/01/10 05:13:38;;;;;;;14.73;5.35;;;;;;;1.49;100.00;101571.47;5072468;28;20106;-31
2022/01/10 05:16:06;;;;;;;11.50;5.50;;;;;;;1.50;100.00;101574.00;5071361;28;20040;-32
2022/01/10 05:18:36;;;;;;;11.25;5.43;;;;;;;1.53;100.00;101570.81;5072173;28;20049;-36
2022/01/10 05:21:04;;;;;;;14.45;5.40;;;;;;;1.52;100.00;101584.78;5071712;28;20056;-33
2022/01/10 05:23:33;;;;;;;9.60;3.90;;;;;;;1.52;100.00;101588.38;5071505;28;20055;-40
2022/01/10 05:26:01;;;;;;;9.23;4.47;;;;;;;1.52;100.00;101587.53;5071659;28;20413;-41
2022/01/10 05:28:29;;;;;;;19.95;6.47;;;;;;;1.51;100.00;101591.34;5072012;28;20053;-38
2022/01/10 05:31:00;;;;;;;15.85;6.10;;;;;;;1.52;100.00;101599.38;5070651;28;20520;-37
2022/01/10 05:33:33;;;;;;;12.73;5.63;;;;;;;1.54;100.00;101596.41;5071754;28;20098;-32
2022/01/10 05:36:01;;;;;;;8.50;3.90;;;;;;;1.55;100.00;101592.59;5072618;28;20467;-36
2022/01/10 05:38:28;;;;;;;7.95;4.47;;;;;;;1.55;100.00;101604.44;5072346;28;20092;-35
2022/01/10 05:40:58;;;;;;;15.88;6.05;;;;;;;1.55;100.00;101603.59;5072381;28;20051;-36
2022/01/10 05:43:26;;;;;;;10.30;4.93;;;;;;;1.54;100.00;101599.16;5060789;28;20045;-37
2022/01/10 05:45:55;;;;;;;15.27;5.68;;;;;;;1.55;100.00;101606.34;5070392;28;20049;-35
2022/01/10 05:48:26;;;;;;;17.08;6.57;;;;;;;1.56;100.00;101608.88;5071282;28;20056;-42
2022/01/10 05:50:59;;;;;;;8.93;4.93;;;;;;;1.57;100.00;101624.31;5070368;28;20501;-35
2022/01/10 05:53:28;;;;;;;8.02;3.92;;;;;;;1.55;100.00;101626.44;5071550;28;20547;-33
2022/01/10 05:55:58;;;;;;;6.78;3.65;;;;;;;1.55;100.00;101637.44;5070810;28;20052;-34
2022/01/10 05:58:27;;;;;;;14.82;5.22;;;;;;;1.55;100.00;101642.94;5070535;28;20044;-29
2022/01/10 06:00:55;;;;;;;10.27;4.85;;;;;;;1.55;100.00;101659.44;5070876;28;20052;-37
2022/01/10 06:03:24;;;;;;;12.35;4.63;;;;;;;1.56;100.00;101658.38;5072909;28;20045;-38
2022/01/10 06:05:59;;;;;;;9.65;4.10;;;;;;;1.55;100.00;101651.19;5070369;28;20080;-39
2022/01/10 06:08:28;;;;;;;9.45;3.50;;;;;;;1.55;100.00;101659.44;5070818;28;20055;-34
2022/01/10 06:10:57;;;;;;;10.18;3.97;;;;;;;1.55;100.00;101666.84;5070331;28;20122;-39
2022/01/10 06:13:38;;;;;;;15.30;4.80;;;;;;;1.54;100.00;101678.91;5067650;28;20053;-40
2022/01/10 06:16:06;;;;;;;10.00;3.97;;;;;;;1.53;100.00;101680.81;5069050;28;20151;-36
2022/01/10 06:18:38;;;;;;;11.02;5.43;;;;;;;1.51;100.00;101688.44;5070567;28;20421;-37
2022/01/10 06:21:06;;;;;;;10.57;4.75;;;;;;;1.49;100.00;101698.81;5070003;28;20098;-31
2022/01/10 06:23:34;;;;;;;11.63;5.43;;;;;;;1.49;100.00;101704.31;5070560;28;20048;-34
2022/01/10 06:26:04;;;;;;;15.65;5.00;;;;;;;1.48;100.00;101708.13;5069855;28;20492;-34
2022/01/10 06:28:31;;;;;;;14.25;5.07;;;;;;;1.47;100.00;101714.69;5071968;28;20110;-36
2022/01/10 06:31:01;;;;;;;16.02;4.75;;;;;;;1.47;100.00;101722.09;5070837;28;20048;-38
2022/01/10 06:33:35;;;;;;;7.00;3.42;;;;;;;1.46;100.00;101723.16;5069303;28;20160;-37
2022/01/10 06:36:05;;;;;;;10.63;3.70;;;;;;;1.44;100.00;101731.63;5070774;28;20079;-36
2022/01/10 06:38:32;;;;;;;21.13;4.97;;;;;;;1.44;100.00;101739.88;5070068;28;20060;-32
2022/01/10 06:41:00;;;;;;;7.13;3.58;;;;;;;1.45;100.00;101741.56;5070142;28;20048;-33
2022/01/10 06:43:31;;;;;;;17.88;5.50;;;;;;;1.46;100.00;101743.25;5070148;28;20413;-32
2022/01/10 06:46:02;;;;;;;17.52;5.65;;;;;;;1.48;100.00;101743.03;5070790;28;20494;-33
2022/01/10 06:48:30;;;;;;;11.68;4.30;;;;;;;1.50;100.00;101749.16;5069522;28;20509;-33
2022/01/10 06:50:57;;;;;;;8.07;3.15;;;;;;;1.51;100.00;101750.84;5070040;28;20516;-38
2022/01/10 06:53:26;;;;;;;7.72;3.08;;;;;;;1.49;100.00;101763.97;5069933;28;20056;-41
2022/01/10 06:55:55;;;;;;;7.18;3.03;;;;;;;1.49;100.00;101769.47;5069641;28;20048;-37
2022/01/10 06:58:23;;;;;;;7.07;3.30;;;;;;;1.47;100.00;101780.69;5071321;28;20067;-36
2022/01/10 07:00:52;;;;;;;8.40;3.45;;;;;;;1.47;100.00;101777.09;5070411;28;20111;-36
2022/01/10 07:03:20;;;;;;;7.00;2.42;;;;;;;1.45;100.00;101790.22;5070212;28;20148;-33
2022/01/10 07:06:02;;;;;;;5.93;2.53;;;;;;;1.42;100.00;101791.47;5070409;28;20147;-34
2022/01/10 07:08:31;;;;;;;14.02;3.95;;;;;;;1.40;100.00;101793.59;5069107;28;20117;-37
2022/01/10 07:11:01;;;;;;;13.32;4.90;;;;;;;1.40;100.00;101793.59;5070226;28;20048;-35
2022/01/10 07:13:31;;;;;;;16.50;5.07;;;;;;;1.42;100.00;101807.13;5069632;28;20049;-39
2022/01/10 07:16:04;;;;;;;8.02;3.15;;;;;;;1.42;100.00;101807.97;5069084;28;20113;-37
2022/01/10 07:18:33;;;;;;;6.57;2.53;;;;;;;1.42;100.00;101818.97;5069835;28;20506;-39
2022/01/10 07:21:07;;;;;;;9.82;3.75;;;;;;;1.41;100.00;101821.94;5069162;28;20079;-37
2022/01/10 07:23:35;;;;;;;12.40;3.88;;;;;;;1.40;100.00;101825.78;5070266;28;20041;-33
2022/01/10 07:26:03;;;;;;;15.68;4.50;;;;;;;1.40;100.00;101826.59;5070969;28;20059;-40
2022/01/10 07:28:30;;;;;;;9.57;3.58;;;;;;;1.40;100.00;101839.53;5070837;28;20067;-33
2022/01/10 07:30:58;;;;;;;9.63;4.13;;;;;;;1.40;100.00;101853.28;5070218;28;20056;-35
2022/01/10 07:33:27;;;;;;;5.18;2.67;;;;;;;1.37;100.00;101849.06;5070751;28;20050;-36
2022/01/10 07:36:00;;;;;;;8.90;3.67;;;;;;;1.35;100.00;101853.91;5070416;28;20048;-33
2022/01/10 07:38:35;;;;;;;4.47;2.33;;;;;;;1.34;100.00;101860.47;5069579;28;20044;-34
2022/01/10 07:41:03;;;;;;;5.13;2.30;;;;;;;1.31;100.00;101878.25;5066686;28;20044;-39
2022/01/10 07:43:31;;;;;;;4.05;2.10;;;;;;;1.28;100.00;101873.16;5069783;28;20106;-35
2022/01/10 07:46:02;;;;;;;5.03;1.88;;;;;;;1.25;100.00;101878.25;5072066;28;20048;-36
2022/01/10 07:48:33;;;;;;;4.60;2.03;;;;;;;1.23;100.00;101883.09;5074090;28;20490;-40
2022/01/10 07:51:00;;;;;;;4.88;1.63;;;;;;;1.18;100.00;101889.25;5073994;28;20056;-40
2022/01/10 07:53:28;;;;;;;3.53;1.75;;;;;;;1.17;100.00;101892.22;5074910;28;20053;-30
2022/01/10 07:55:59;;;;;;;3.30;1.65;;;;;;;1.13;100.00;101908.28;5074896;28;20126;-37
2022/01/10 07:58:26;;;;;;;4.35;1.80;;;;;;;1.10;100.00;101908.69;5074484;28;20045;-35
2022/01/10 08:00:54;;;;;;;5.28;2.08;;;;;;;1.09;100.00;101911.66;5074565;28;20048;-32
2022/01/10 08:03:22;;;;;;;4.95;2.17;;;;;;;1.06;100.00;101909.31;5075073;28;20412;-38
2022/01/10 08:05:51;;;;;;;3.75;1.80;;;;;;;1.04;100.00;101920.53;5073683;28;20044;-31
2022/01/10 08:08:19;;;;;;;4.40;2.33;;;;;;;1.02;100.00;101925.38;5075009;28;20052;-29
2022/01/10 08:10:47;;;;;;;5.70;2.40;;;;;;;1.01;100.00;101931.94;5074537;28;20047;-33
2022/01/10 08:13:14;;;;;;;4.25;2.03;;;;;;;1.01;100.00;101938.28;5073843;28;20056;-32
2022/01/10 08:15:42;;;;;;;6.13;2.92;;;;;;;1.03;100.00;101947.16;5074799;28;20074;-35
2022/01/10 08:18:10;;;;;;;5.95;2.45;;;;;;;1.07;100.00;101952.25;5071160;28;20131;-34
2022/01/10 08:20:38;;;;;;;9.63;4.13;;;;;;;1.09;100.00;101955.63;5073624;28;20056;-32
2022/01/10 08:23:12;;;;;;;9.57;4.15;;;;;;;1.14;100.00;101956.69;5073776;28;20425;-33
2022/01/10 08:25:40;;;;;;;11.55;4.32;;;;;;;1.19;100.00;101956.94;5073642;28;20512;-36
2022/01/10 08:28:08;;;;;;;9.13;4.20;;;;;;;1.24;100.00;101959.88;5074137;28;20052;-36
2022/01/10 08:30:36;;;;;;;13.70;4.70;;;;;;;1.31;100.00;101968.97;5074137;28;20056;-36
2022/01/10 08:33:04;;;;;;;6.68;3.38;;;;;;;1.40;100.00;101963.28;5073136;28;20090;-37
2022/01/10 08:35:33;;;;;;;14.07;4.80;;;;;;;1.48;100.00;101972.16;5074429;28;20041;-38
2022/01/10 08:38:01;;;;;;;11.55;4.10;;;;;;;1.57;100.00;101965.38;5074179;28;20059;-30
2022/01/10 08:40:31;;;;;;;8.52;4.40;;;;;;;1.65;100.00;101962.41;5073638;28;20044;-38
2022/01/10 08:43:06;;;;;;;10.05;4.18;;;;;;;1.73;100.00;101970.44;5073218;28;20059;-35
2022/01/10 08:45:34;;;;;;;10.90;4.32;;;;;;;1.80;100.00;101975.91;5073933;28;20060;-40
2022/01/10 08:48:02;;;;;;;9.35;3.92;;;;;;;1.87;100.00;101985.00;5072916;28;20087;-31
2022/01/10 08:50:29;;;;;;;10.93;4.40;;;;;;;1.95;100.00;101983.97;5073942;28;20114;-35
2022/01/10 08:52:57;;;;;;;11.52;3.92;;;;;;;2.05;100.00;101978.84;5073213;28;20048;-38
2022/01/10 08:55:25;;;;;;;13.05;4.88;;;;;;;2.17;100.00;101984.53;5072835;28;20053;-37
2022/01/10 08:57:54;;;;;;;8.05;4.10;;;;;;;2.33;100.00;101989.56;5073338;28;20485;-34
2022/01/10 09:00:22;;;;;;;10.30;5.03;;;;;;;2.46;100.00;101988.66;5074131;28;20060;-38
2022/01/10 09:02:50;;;;;;;13.23;5.63;;;;;;;2.59;100.00;101991.38;5072882;28;20047;-34
2022/01/10 09:05:18;;;;;;;12.15;5.18;;;;;;;2.74;100.00;102001.06;5073788;28;20040;-40
2022/01/10 09:07:46;;;;;;;10.30;5.18;;;;;;;2.93;100.00;102004.75;5072577;28;20513;-38
2022/01/10 09:10:14;;;;;;;14.38;5.43;;;;;;;3.22;100.00;102011.56;5073452;28;20044;-36
2022/01/10 09:12:42;;;;;;;9.38;4.85;;;;;;;3.55;100.00;102024.31;5073076;28;20036;-40
2022/01/10 09:15:13;;;;;;;13.77;5.00;;;;;;;3.89;100.00;102021.03;5072884;28;20044;-35
2022/01/10 09:17:41;;;;;;;10.02;4.53;;;;;;;4.25;100.00;102019.38;5073327;28;20517;-37
2022/01/10 09:20:09;;;;;;;11.00;4.90;;;;;;;4.66;100.00;102021.47;5073500;28;20063;-40
2022/01/10 09:22:38;;;;;;;9.00;4.10;;;;;;;5.02;100.00;102037.16;5072530;28;20067;-36
2022/01/10 09:25:07;;;;;;;11.52;4.85;;;;;;;5.38;100.00;102036.22;5072982;28;20041;-35
2022/01/10 09:27:35;;;;;;;14.43;5.47;;;;;;;5.79;100.00;102043.69;5073143;28;20036;-38
2022/01/10 09:30:03;;;;;;;13.13;5.07;;;;;;;6.25;100.00;102048.41;5072162;28;20040;-33
2022/01/10 09:32:33;;;;;;;12.93;4.68;;;;;;;6.70;100.00;102051.38;5073370;28;20053;-36
2022/01/10 09:35:00;;;;;;;10.90;4.18;;;;;;;7.13;100.00;102061.16;5073103;28;20486;-37
2022/01/10 09:37:28;;;;;;;12.82;4.78;;;;;;;7.30;100.00;102067.59;5072221;28;20048;-34
2022/01/10 09:40:00;;;;;;;10.23;3.97;;;;;;;7.25;100.00;102068.34;5069656;28;20049;-41
2022/01/10 09:42:27;;;;;;;14.40;4.68;;;;;;;7.16;100.00;102072.63;5073116;28;20052;-35
2022/01/10 09:44:55;;;;;;;10.18;4.03;;;;;;;7.04;100.00;102079.28;5071751;28;20037;-40
2022/01/10 09:47:23;;;;;;;10.25;3.70;;;;;;;6.95;100.00;102083.53;5073126;28;20049;-37
2022/01/10 09:49:52;;;;;;;9.60;3.67;;;;;;;6.89;100.00;102093.69;5071687;28;20052;-38
2022/01/10 09:52:19;;;;;;;11.05;3.90;;;;;;;6.84;100.00;102097.19;5073137;28;20052;-44
2022/01/10 09:54:48;;;;;;;6.72;3.28;;;;;;;6.76;100.00;102105.91;5072525;28;20553;-36
2022/01/10 09:57:15;;;;;;;11.40;4.30;;;;;;;6.62;100.00;102107.22;5071860;28;20563;-41
2022/01/10 09:59:43;;;;;;;16.42;4.70;;;;;;;6.35;100.00;102117.97;5072299;28;20047;-37
2022/01/10 10:02:12;;;;;;;9.55;4.75;;;;;;;6.12;100.00;102115.16;5072842;28;20044;-35
2022/01/10 10:04:41;;;;;;;14.07;5.35;;;;;;;5.90;100.00;102122.34;5071357;28;20060;-40
2022/01/10 10:07:10;;;;;;;13.15;4.90;;;;;;;5.73;100.00;102124.94;5071710;28;20044;-37
2022/01/10 10:09:39;;;;;;;14.77;5.15;;;;;;;5.56;100.00;102133.06;5072241;28;20048;-40
2022/01/10 10:12:09;;;;;;;17.08;6.47;;;;;;;5.42;100.00;102126.84;5071696;28;20051;-40
2022/01/10 10:14:38;;;;;;;15.10;6.25;;;;;;;5.34;100.00;102129.13;5071996;28;20044;-38
2022/01/10 10:17:13;;;;;;;15.88;6.60;;;;;;;5.28;100.00;102143.88;5072453;28;20448;-34
2022/01/10 10:19:42;;;;;;;20.10;8.07;;;;;;;5.23;100.00;102147.31;5071517;28;20048;-34
2022/01/10 10:22:15;;;;;;;15.60;6.70;;;;;;;5.17;100.00;102151.03;5071744;28;20390;-37
2022/01/10 10:24:46;;;;;;;20.67;6.93;;;;;;;5.14;100.00;102146.81;5072137;28;20040;-35
2022/01/10 10:27:16;;;;;;;16.20;6.22;;;;;;;5.11;100.00;102154.72;5071121;28;20051;-36
2022/01/10 10:30:08;;;;;;;13.43;6.15;;;;;;;5.10;100.00;102161.34;5072108;28;20102;-35
2022/01/10 10:32:35;;;;;;;11.05;5.00;;;;;;;5.12;100.00;102176.63;5071401;28;20048;-35
2022/01/10 10:35:09;;;;;;;15.57;6.07;;;;;;;5.18;100.00;102172.94;5072108;28;20379;-38
2022/01/10 10:37:40;;;;;;;14.93;6.65;;;;;;;5.21;100.00;102174.38;5071640;28;20079;-40
2022/01/10 10:40:13;;;;;;;15.60;6.45;;;;;;;5.24;100.00;102178.63;5070947;28;20477;-40
2022/01/10 10:42:42;;;;;;;15.93;5.38;;;;;;;5.26;100.00;102179.22;5072011;28;20067;-38
2022/01/10 10:45:13;;;;;;;14.95;5.60;;;;;;;5.28;100.00;102180.69;5071890;28;20044;-37
2022/01/10 10:47:44;;;;;;;10.98;4.30;;;;;;;5.31;100.00;102193.22;5071120;28;20057;-38
2022/01/10 10:50:12;;;;;;;14.48;5.40;;;;;;;5.31;100.00;102191.31;5071688;28;20056;-36
2022/01/10 10:52:42;;;;;;;18.55;6.32;;;;;;;5.33;100.00;102193.84;5071395;28;20505;-34
2022/01/10 10:55:12;;;;;;;17.15;6.00;;;;;;;5.35;100.00;102194.47;5069731;28;20391;-34
2022/01/10 10:57:42;;;;;;;13.35;5.78;;;;;;;5.38;100.00;102197.63;5071637;28;20414;-35
2022/01/10 11:00:14;;;;;;;12.80;5.68;;;;;;;5.45;100.00;102201.13;5070768;28;20056;-35
2022/01/10 11:02:43;;;;;;;15.60;6.13;;;;;;;5.49;100.00;102199.59;5071379;28;20051;-39
2022/01/10 11:05:13;;;;;;;12.55;5.68;;;;;;;5.53;100.00;102205.50;5071725;28;20054;-41
2022/01/10 11:07:43;;;;;;;14.90;6.32;;;;;;;5.54;100.00;102207.19;5070264;28;20048;-39
2022/01/10 11:10:15;;;;;;;12.82;4.68;;;;;;;5.56;100.00;102205.06;5071627;28;20055;-37
2022/01/10 11:12:48;;;;;;;10.40;4.75;;;;;;;5.62;100.00;102217.94;5070923;28;20044;-34
2022/01/10 11:15:16;;;;;;;13.27;5.55;;;;;;;5.67;100.00;102223.63;5070326;28;20414;-33
2022/01/10 11:17:43;;;;;;;10.18;4.95;;;;;;;5.72;100.00;102226.56;5070743;28;20048;-34
2022/01/10 11:20:16;;;;;;;11.90;5.20;;;;;;;5.75;100.00;102231.63;5071224;28;20047;-39
2022/01/10 11:22:46;;;;;;;15.82;5.65;;;;;;;5.76;100.00;102227.78;5070334;28;20044;-38
2022/01/10 11:25:23;;;;;;;14.00;6.72;;;;;;;5.78;100.00;102230.31;5070829;28;20093;-40
2022/01/10 11:27:53;;;;;;;14.05;6.65;;;;;;;5.74;100.00;102234.63;5070165;28;20036;-34
2022/01/10 11:30:33;;;;;;;15.93;6.82;;;;;;;5.68;100.00;102230.00;5070506;28;20049;-39
2022/01/10 11:33:04;;;;;;;14.70;6.18;;;;;;;5.65;100.00;102241.56;5069525;28;20494;-38
2022/01/10 11:35:53;;;;;;;17.65;5.97;;;;;;;5.54;100.00;102243.19;5069323;28;20105;-30